createdAt,value
2019-04-21T00:01:30.688Z,102149.52
2019-04-21T00:04:09.498Z,102149.52
2019-04-21T00:06:48.048Z,102144.66
2019-04-21T00:09:21.148Z,102141.55
2019-04-21T00:11:51.363Z,102137.62
2019-04-21T00:14:05.749Z,102136.22
2019-04-21T00:16:32.138Z,102132.27
2019-04-21T00:19:19.072Z,102136.61
2019-04-21T00:21:49.242Z,102127.39
2019-04-21T00:24:23.958Z,102130.01
2019-04-21T00:27:34.291Z,102125.61
2019-04-21T00:30:14.118Z,102128.19
2019-04-21T00:32:27.923Z,102126.45
2019-04-21T00:34:51.018Z,102125.54
2019-04-21T00:37:25.457Z,102126.79
2019-04-21T00:40:05.335Z,102118.84
2019-04-21T00:42:34.335Z,102117.95
2019-04-21T00:44:59.261Z,102107.39
2019-04-21T00:47:34.557Z,102106.02
2019-04-21T00:50:05.314Z,102112.52
2019-04-21T00:55:29.851Z,102111.59
2019-04-21T01:00:11.659Z,102108.04
2019-04-21T01:02:46.892Z,102103.59
2019-04-21T01:05:11.099Z,102101.41
2019-04-21T01:07:42.422Z,102102.27
2019-04-21T01:10:01.973Z,102107.89
2019-04-21T01:12:37.420Z,102103.07
2019-04-21T01:15:12.566Z,102106.98
2019-04-21T01:17:38.297Z,102100.45
2019-04-21T01:20:00.029Z,102103.88
2019-04-21T01:22:12.866Z,102105.14
2019-04-21T01:24:44.880Z,102102.09
2019-04-21T01:27:20.677Z,102097.70
2019-04-21T01:29:59.794Z,102099.89
2019-04-21T01:32:29.723Z,102100.70
2019-04-21T01:34:58.303Z,102099.37
2019-04-21T01:37:28.854Z,102095.02
2019-04-21T01:39:58.417Z,102097.55
2019-04-21T01:42:21.350Z,102089.27
2019-04-21T01:44:56.289Z,102086.16
2019-04-21T01:47:17.449Z,102091.81
2019-04-21T01:49:41.690Z,102091.79
2019-04-21T01:52:25.792Z,102092.19
2019-04-21T01:55:06.462Z,102090.41
2019-04-21T01:57:54.081Z,102091.72
2019-04-21T02:01:03.539Z,102091.29
2019-04-21T02:06:14.930Z,102078.99
2019-04-21T02:08:31.357Z,102081.14
2019-04-21T02:11:05.182Z,102075.85
2019-04-21T02:13:27.722Z,102076.31
2019-04-21T02:18:27.674Z,102087.58
2019-04-21T02:20:48.262Z,102080.56
2019-04-21T02:23:39.515Z,102078.83
2019-04-21T02:25:57.458Z,102073.55
2019-04-21T02:28:36.725Z,102073.12
2019-04-21T02:31:18.664Z,102066.98
2019-04-21T02:33:46.537Z,102072.16
2019-04-21T02:36:24.700Z,102071.73
2019-04-21T02:38:40.325Z,102071.73
2019-04-21T02:41:01.478Z,102074.35
2019-04-21T02:43:25.609Z,102071.69
2019-04-21T02:46:04.783Z,102073.80
2019-04-21T02:50:53.393Z,102073.19
2019-04-21T02:53:50.698Z,102068.44
2019-04-21T02:59:06.861Z,102063.61
2019-04-21T03:01:56.224Z,102057.41
2019-04-21T03:09:53.055Z,102048.39
2019-04-21T03:17:29.212Z,102046.86
2019-04-21T03:22:20.769Z,102045.53
2019-04-21T03:25:20.377Z,102041.52
2019-04-21T03:27:35.594Z,102044.98
2019-04-21T03:29:55.507Z,102041.91
2019-04-21T03:35:18.447Z,102032.75
2019-04-21T03:37:23.506Z,102027.06
2019-04-21T03:39:45.491Z,102023.09
2019-04-21T03:42:25.632Z,102024.80
2019-04-21T03:44:37.376Z,102023.06
2019-04-21T03:47:15.448Z,102019.93
2019-04-21T03:49:48.118Z,102027.34
2019-04-21T03:52:11.979Z,102025.22
2019-04-21T03:55:46.837Z,102023.88
2019-04-21T03:58:05.099Z,102031.72
2019-04-21T04:00:24.985Z,102030.02
2019-04-21T04:03:27.468Z,102029.16
2019-04-21T04:06:05.435Z,102029.22
2019-04-21T04:08:50.206Z,102033.99
2019-04-21T04:16:10.204Z,102029.13
2019-04-21T04:18:51.197Z,102025.19
2019-04-21T04:23:45.240Z,102020.81
2019-04-21T04:26:07.617Z,102029.04
2019-04-21T04:31:06.469Z,102028.56
2019-04-21T04:33:37.461Z,102031.14
2019-04-21T04:36:15.598Z,102021.60
2019-04-21T04:41:42.296Z,102030.37
2019-04-21T04:44:04.875Z,102023.05
2019-04-21T04:46:41.573Z,102028.38
2019-04-21T04:48:57.320Z,102028.85
2019-04-21T04:51:23.339Z,102026.33
2019-04-21T04:53:48.773Z,102029.08
2019-04-21T04:56:26.120Z,102030.47
2019-04-21T05:03:52.674Z,102022.50
2019-04-21T05:06:42.449Z,102021.39
2019-04-21T05:23:48.382Z,102020.84
2019-04-21T05:26:13.791Z,102020.55
2019-04-21T05:28:40.902Z,102018.03
2019-04-21T05:31:40.105Z,102022.02
2019-04-21T05:34:10.321Z,102023.92
2019-04-21T05:37:04.100Z,102015.33
2019-04-21T05:39:42.352Z,102017.23
2019-04-21T05:42:05.019Z,102021.70
2019-04-21T05:50:12.151Z,102018.80
2019-04-21T05:53:00.735Z,102024.95
2019-04-21T05:58:02.537Z,102021.47
2019-04-21T06:03:25.155Z,102025.86
2019-04-21T06:06:00.742Z,102024.91
2019-04-21T06:08:17.943Z,102020.47
2019-04-21T06:16:07.315Z,102014.52
2019-04-21T06:18:44.485Z,102016.17
2019-04-21T06:21:05.696Z,102024.45
2019-04-21T06:23:36.602Z,102016.98
2019-04-21T06:26:44.798Z,102020.39
2019-04-21T06:28:38.065Z,102021.58
2019-04-21T06:31:17.968Z,102017.09
2019-04-21T06:33:36.297Z,102020.03
2019-04-21T06:39:28.319Z,102022.48
2019-04-21T06:41:34.281Z,102019.16
2019-04-21T06:46:34.987Z,102015.78
2019-04-21T06:49:15.575Z,102016.92
2019-04-21T06:51:45.510Z,102019.97
2019-04-21T06:54:16.139Z,102018.38
2019-04-21T06:56:46.419Z,102023.59
2019-04-21T06:59:15.123Z,102024.28
2019-04-21T07:01:56.602Z,102019.97
2019-04-21T07:04:21.026Z,102017.91
2019-04-21T07:06:45.733Z,102017.19
2019-04-21T07:09:15.306Z,102017.86
2019-04-21T07:11:31.565Z,102016.01
2019-04-21T07:14:24.363Z,102014.41
2019-04-21T07:16:38.679Z,102022.51
2019-04-21T07:19:13.225Z,102018.73
2019-04-21T07:21:34.218Z,102012.89
2019-04-21T07:24:10.677Z,102020.33
2019-04-21T07:26:32.704Z,102015.53
2019-04-21T07:29:01.876Z,102018.33
2019-04-21T07:31:34.807Z,102019.31
2019-04-21T07:33:57.361Z,102012.73
2019-04-21T07:36:35.466Z,102011.08
2019-04-21T07:38:49.832Z,102007.84
2019-04-21T07:41:15.931Z,102011.30
2019-04-21T07:43:53.431Z,102012.61
2019-04-21T07:46:22.563Z,102007.59
2019-04-21T07:48:55.745Z,102005.68
2019-04-21T07:51:50.679Z,102006.13
2019-04-21T07:54:23.812Z,102004.93
2019-04-21T07:56:34.355Z,102003.21
2019-04-21T07:59:12.760Z,102004.17
2019-04-21T08:06:53.664Z,101990.95
2019-04-21T08:09:20.867Z,101990.42
2019-04-21T08:11:44.279Z,101986.47
2019-04-21T08:14:19.655Z,101987.31
2019-04-21T08:16:51.204Z,101986.98
2019-04-21T08:19:21.737Z,101981.55
2019-04-21T08:21:49.611Z,101983.52
2019-04-21T08:24:14.968Z,101983.78
2019-04-21T08:26:44.952Z,101976.33
2019-04-21T08:29:20.666Z,101976.50
2019-04-21T08:31:48.603Z,101966.40
2019-04-21T08:34:14.130Z,101966.22
2019-04-21T08:36:41.386Z,101968.14
2019-04-21T08:39:07.318Z,101959.88
2019-04-21T08:41:42.637Z,101960.94
2019-04-21T08:44:01.649Z,101957.27
2019-04-21T08:46:40.622Z,101963.30
2019-04-21T08:52:03.749Z,101958.10
2019-04-21T08:54:15.116Z,101957.29
2019-04-21T08:57:05.122Z,101958.14
2019-04-21T08:59:56.859Z,101950.13
2019-04-21T09:05:09.481Z,101941.16
2019-04-21T09:07:55.259Z,101946.01
2019-04-21T09:10:06.808Z,101933.99
2019-04-21T09:12:38.251Z,101938.37
2019-04-21T09:15:02.717Z,101939.41
2019-04-21T09:17:26.283Z,101928.72
2019-04-21T09:20:07.590Z,101927.02
2019-04-21T09:22:30.766Z,101936.13
2019-04-21T09:24:59.671Z,101926.62
2019-04-21T09:27:29.346Z,101925.97
2019-04-21T09:29:44.731Z,101925.17
2019-04-21T09:32:13.577Z,101925.65
2019-04-21T09:34:40.446Z,101916.55
2019-04-21T09:37:20.332Z,101917.14
2019-04-21T09:39:33.834Z,101913.86
2019-04-21T09:42:04.418Z,101908.27
2019-04-21T09:44:36.773Z,101912.05
2019-04-21T09:47:03.164Z,101901.20
2019-04-21T09:49:31.730Z,101900.80
2019-04-21T09:51:58.135Z,101893.28
2019-04-21T09:54:31.171Z,101889.39
2019-04-21T09:56:59.952Z,101888.67
2019-04-21T09:59:30.093Z,101884.44
2019-04-21T10:02:05.190Z,101869.15
2019-04-21T10:04:23.093Z,101872.11
2019-04-21T10:06:51.970Z,101871.50
2019-04-21T10:09:21.763Z,101869.16
2019-04-21T10:11:48.930Z,101869.41
2019-04-21T10:14:15.665Z,101860.81
2019-04-21T10:17:03.069Z,101857.63
2019-04-21T10:19:30.330Z,101857.48
2019-04-21T10:22:00.444Z,101859.47
2019-04-21T10:24:28.512Z,101852.36
2019-04-21T10:26:56.346Z,101854.08
2019-04-21T10:29:26.535Z,101845.72
2019-04-21T10:31:52.520Z,101845.16
2019-04-21T10:34:21.120Z,101844.22
2019-04-21T10:36:49.056Z,101836.38
2019-04-21T10:39:17.866Z,101832.69
2019-04-21T10:41:45.804Z,101832.47
2019-04-21T10:44:14.424Z,101832.16
2019-04-21T10:46:42.848Z,101830.44
2019-04-21T10:49:10.834Z,101820.89
2019-04-21T10:51:39.374Z,101811.09
2019-04-21T10:54:06.324Z,101809.26
2019-04-21T10:56:38.084Z,101805.31
2019-04-21T10:59:02.739Z,101814.80
2019-04-21T11:01:31.367Z,101802.13
2019-04-21T11:04:02.797Z,101791.48
2019-04-21T11:06:30.825Z,101791.83
2019-04-21T11:09:01.044Z,101793.72
2019-04-21T11:11:28.077Z,101782.04
2019-04-21T11:13:55.155Z,101780.80
2019-04-21T11:16:23.389Z,101779.76
2019-04-21T11:18:51.715Z,101782.80
2019-04-21T11:21:20.868Z,101767.89
2019-04-21T11:23:50.125Z,101770.57
2019-04-21T11:26:18.464Z,101766.88
2019-04-21T11:28:45.589Z,101762.91
2019-04-21T11:31:13.318Z,101767.89
2019-04-21T11:33:40.522Z,101758.01
2019-04-21T11:36:08.982Z,101756.20
2019-04-21T11:41:25.649Z,101755.05
2019-04-21T11:43:55.014Z,101745.26
2019-04-21T11:46:24.466Z,101749.14
2019-04-21T11:48:52.592Z,101743.81
2019-04-21T11:51:19.826Z,101745.00
2019-04-21T11:53:46.934Z,101737.96
2019-04-21T11:56:14.676Z,101740.19
2019-04-21T11:58:43.940Z,101739.38
2019-04-21T12:01:13.890Z,101738.75
2019-04-21T12:03:42.010Z,101735.45
2019-04-21T12:06:09.275Z,101729.61
2019-04-21T12:08:42.350Z,101721.23
2019-04-21T12:11:05.628Z,101720.43
2019-04-21T12:13:34.047Z,101710.04
2019-04-21T12:16:03.135Z,101712.73
2019-04-21T12:18:32.438Z,101709.95
2019-04-21T12:21:01.122Z,101702.94
2019-04-21T12:23:30.076Z,101699.12
2019-04-21T12:25:59.113Z,101692.18
2019-04-21T12:28:28.035Z,101698.83
2019-04-21T12:30:56.137Z,101690.67
2019-04-21T12:33:43.634Z,101686.51
2019-04-21T12:36:11.600Z,101679.20
2019-04-21T12:38:46.934Z,101677.30
2019-04-21T12:41:08.718Z,101670.44
2019-04-21T12:43:37.359Z,101667.49
2019-04-21T12:46:04.502Z,101672.64
2019-04-21T12:48:31.956Z,101663.91
2019-04-21T12:50:59.805Z,101664.13
2019-04-21T12:53:29.597Z,101652.88
2019-04-21T12:55:57.882Z,101648.24
2019-04-21T12:58:26.260Z,101647.91
2019-04-21T13:00:54.635Z,101641.03
2019-04-21T13:03:23.909Z,101635.64
2019-04-21T13:05:51.781Z,101641.96
2019-04-21T13:08:21.736Z,101628.20
2019-04-21T13:10:50.234Z,101632.68
2019-04-21T13:13:17.709Z,101625.60
2019-04-21T13:15:47.330Z,101623.38
2019-04-21T13:18:16.412Z,101619.92
2019-04-21T13:20:46.352Z,101617.41
2019-04-21T13:23:14.851Z,101617.16
2019-04-21T13:25:42.068Z,101614.03
2019-04-21T13:28:10.380Z,101606.75
2019-04-21T13:30:38.176Z,101596.09
2019-04-21T13:33:05.335Z,101597.14
2019-04-21T13:35:33.166Z,101596.77
2019-04-21T13:38:02.693Z,101596.95
2019-04-21T13:41:04.939Z,101591.39
2019-04-21T13:43:19.375Z,101588.19
2019-04-21T13:45:47.682Z,101588.73
2019-04-21T13:48:16.772Z,101584.62
2019-04-21T13:50:44.449Z,101585.59
2019-04-21T13:53:12.391Z,101573.67
2019-04-21T13:55:42.488Z,101572.09
2019-04-21T13:58:10.476Z,101573.67
2019-04-21T14:00:37.970Z,101566.73
2019-04-21T14:03:07.089Z,101565.34
2019-04-21T14:05:36.182Z,101564.12
2019-04-21T14:08:05.083Z,101556.78
2019-04-21T14:10:33.585Z,101561.75
2019-04-21T14:13:00.572Z,101549.00
2019-04-21T14:15:28.410Z,101546.94
2019-04-21T14:17:56.925Z,101551.84
2019-04-21T14:20:25.256Z,101548.13
2019-04-21T14:22:52.062Z,101545.95
2019-04-21T14:25:19.626Z,101539.72
2019-04-21T14:27:50.661Z,101540.08
2019-04-21T14:30:18.571Z,101540.92
2019-04-21T14:32:47.631Z,101534.56
2019-04-21T14:35:56.835Z,101541.09
2019-04-21T14:38:24.911Z,101534.69
2019-04-21T14:40:54.399Z,101528.30
2019-04-21T14:43:23.766Z,101527.95
2019-04-21T14:46:12.931Z,101523.38
2019-04-21T14:48:59.678Z,101522.22
2019-04-21T14:51:47.476Z,101520.12
2019-04-21T14:54:34.488Z,101515.09
2019-04-21T14:57:03.109Z,101509.82
2019-04-21T14:59:31.155Z,101509.27
2019-04-21T15:02:11.657Z,101501.80
2019-04-21T15:04:39.759Z,101510.66
2019-04-21T15:07:07.693Z,101501.72
2019-04-21T15:09:37.161Z,101505.16
2019-04-21T15:12:03.453Z,101494.63
2019-04-21T15:14:31.773Z,101495.33
2019-04-21T15:16:59.240Z,101492.05
2019-04-21T15:19:26.642Z,101498.89
2019-04-21T15:21:54.317Z,101487.52
2019-04-21T15:24:22.432Z,101488.06
2019-04-21T15:26:52.935Z,101487.52
2019-04-21T15:29:20.463Z,101487.33
2019-04-21T15:31:50.510Z,101481.37
2019-04-21T15:34:19.243Z,101474.97
2019-04-21T15:36:48.243Z,101475.07
2019-04-21T15:39:16.163Z,101468.90
2019-04-21T15:41:44.906Z,101473.48
2019-04-21T15:44:12.888Z,101468.31
2019-04-21T15:46:40.079Z,101470.72
2019-04-21T15:49:07.201Z,101465.83
2019-04-21T15:51:35.751Z,101465.06
2019-04-21T15:54:04.873Z,101460.55
2019-04-21T15:56:53.150Z,101462.72
2019-04-21T15:59:40.226Z,101458.57
2019-04-21T16:02:28.458Z,101458.77
2019-04-21T16:04:56.747Z,101451.41
2019-04-21T16:07:24.458Z,101440.25
2019-04-21T16:09:54.259Z,101444.88
2019-04-21T16:12:22.051Z,101442.97
2019-04-21T16:14:52.392Z,101448.81
2019-04-21T16:17:21.152Z,101435.32
2019-04-21T16:19:49.928Z,101429.17
2019-04-21T16:22:18.856Z,101430.20
2019-04-21T16:24:47.757Z,101429.88
2019-04-21T16:27:15.305Z,101422.91
2019-04-21T16:29:43.965Z,101421.89
2019-04-21T16:32:14.137Z,101424.88
2019-04-21T16:34:48.946Z,101419.52
2019-04-21T16:37:09.777Z,101426.19
2019-04-21T16:39:38.666Z,101418.92
2019-04-21T16:42:08.346Z,101416.19
2019-04-21T16:44:34.813Z,101416.39
2019-04-21T16:47:03.322Z,101412.32
2019-04-21T16:49:31.733Z,101411.10
2019-04-21T16:52:20.371Z,101411.88
2019-04-21T16:54:51.892Z,101403.08
2019-04-21T16:57:39.897Z,101404.47
2019-04-21T17:00:58.606Z,101402.75
2019-04-21T17:03:16.923Z,101403.84
2019-04-21T17:05:44.051Z,101399.37
2019-04-21T17:08:11.310Z,101395.59
2019-04-21T17:10:40.335Z,101397.72
2019-04-21T17:13:09.629Z,101397.64
2019-04-21T17:15:53.090Z,101392.98
2019-04-21T17:18:23.170Z,101392.92
2019-04-21T17:20:45.032Z,101383.33
2019-04-21T17:23:04.082Z,101388.73
2019-04-21T17:25:32.083Z,101384.75
2019-04-21T17:28:01.549Z,101387.86
2019-04-21T17:30:28.849Z,101379.89
2019-04-21T17:32:55.614Z,101384.69
2019-04-21T17:35:22.860Z,101383.41
2019-04-21T17:37:52.064Z,101385.20
2019-04-21T17:41:13.854Z,101381.29
2019-04-21T17:43:31.974Z,101381.97
2019-04-21T17:46:00.654Z,101383.88
2019-04-21T17:48:29.175Z,101388.29
2019-04-21T17:51:17.324Z,101383.58
2019-04-21T17:53:53.773Z,101387.16
2019-04-21T17:56:47.485Z,101386.42
2019-04-21T17:59:15.251Z,101389.30
2019-04-21T18:01:39.337Z,101388.44
2019-04-21T18:04:12.617Z,101380.33
2019-04-21T18:06:46.709Z,101380.44
2019-04-21T18:09:25.523Z,101389.34
2019-04-21T18:11:46.760Z,101381.64
2019-04-21T18:13:55.628Z,101382.11
2019-04-21T18:16:31.621Z,101384.95
2019-04-21T18:18:52.964Z,101381.09
2019-04-21T18:24:22.254Z,101384.39
2019-04-21T18:29:36.579Z,101385.89
2019-04-21T18:32:06.218Z,101388.95
2019-04-21T18:34:58.148Z,101387.59
2019-04-21T18:37:47.700Z,101386.63
2019-04-21T18:40:20.436Z,101389.17
2019-04-21T18:46:00.687Z,101393.85
2019-04-21T18:48:34.907Z,101390.14
2019-04-21T18:51:11.553Z,101399.23
2019-04-21T18:54:19.328Z,101402.68
2019-04-21T18:56:23.177Z,101405.19
2019-04-21T18:58:51.205Z,101407.16
2019-04-21T19:01:24.191Z,101414.33
2019-04-21T19:03:50.727Z,101404.56
2019-04-21T19:06:19.404Z,101411.88
2019-04-21T19:09:08.280Z,101411.64
2019-04-21T19:11:28.132Z,101412.83
2019-04-21T19:14:20.906Z,101412.11
2019-04-21T19:16:41.620Z,101408.41
2019-04-21T19:19:24.681Z,101409.48
2019-04-21T19:21:28.296Z,101405.28
2019-04-21T19:24:10.828Z,101405.45
2019-04-21T19:26:37.799Z,101407.41
2019-04-21T19:29:01.549Z,101404.83
2019-04-21T19:31:32.142Z,101405.02
2019-04-21T19:33:51.660Z,101413.95
2019-04-21T19:36:11.273Z,101407.00
2019-04-21T19:38:49.261Z,101408.50
2019-04-21T19:41:25.698Z,101411.72
2019-04-21T19:43:57.418Z,101406.13
2019-04-21T19:46:26.418Z,101406.22
2019-04-21T19:49:01.282Z,101417.30
2019-04-21T19:51:19.805Z,101412.99
2019-04-21T19:53:44.555Z,101405.63
2019-04-21T19:56:01.250Z,101403.91
2019-04-21T19:58:33.802Z,101411.02
2019-04-21T20:00:59.636Z,101404.92
2019-04-21T20:03:28.148Z,101401.96
2019-04-21T20:06:08.161Z,101408.17
2019-04-21T20:08:40.145Z,101405.19
2019-04-21T20:11:14.558Z,101397.79
2019-04-21T20:13:59.499Z,101400.95
2019-04-21T20:16:17.279Z,101404.08
2019-04-21T20:18:32.047Z,101402.45
2019-04-21T20:20:52.183Z,101403.36
2019-04-21T20:23:26.124Z,101401.15
2019-04-21T20:25:54.710Z,101408.30
2019-04-21T20:28:35.781Z,101402.59
2019-04-21T20:31:06.804Z,101402.21
2019-04-21T20:33:49.345Z,101405.38
2019-04-21T20:36:02.015Z,101405.83
2019-04-21T20:38:25.024Z,101393.12
2019-04-21T20:40:50.909Z,101400.22
2019-04-21T20:43:35.037Z,101398.53
2019-04-21T20:48:21.064Z,101396.04
2019-04-21T20:51:00.254Z,101391.32
2019-04-21T20:53:27.413Z,101399.73
2019-04-21T20:55:52.825Z,101389.25
2019-04-21T21:01:08.722Z,101401.66
2019-04-21T21:03:24.257Z,101400.36
2019-04-21T21:05:45.791Z,101400.88
2019-04-21T21:08:22.921Z,101399.60
2019-04-21T21:10:45.342Z,101401.76
2019-04-21T21:13:26.517Z,101401.39
2019-04-21T21:16:01.189Z,101400.00
2019-04-21T21:18:35.571Z,101399.14
2019-04-21T21:20:43.126Z,101400.80
2019-04-21T21:23:09.210Z,101399.50
2019-04-21T21:25:45.172Z,101404.31
2019-04-21T21:28:04.375Z,101396.80
2019-04-21T21:30:34.706Z,101400.31
2019-04-21T21:33:12.670Z,101399.13
2019-04-21T21:35:37.111Z,101398.07
2019-04-21T21:38:08.187Z,101395.41
2019-04-21T21:40:38.266Z,101395.00
2019-04-21T21:42:48.143Z,101400.77
2019-04-21T21:45:19.862Z,101397.23
2019-04-21T21:48:00.706Z,101399.48
2019-04-21T21:51:05.871Z,101396.05
2019-04-21T21:53:45.656Z,101399.14
2019-04-21T21:56:14.497Z,101395.19
2019-04-21T21:58:44.263Z,101392.18
2019-04-21T22:01:53.139Z,101390.91
2019-04-21T22:04:26.348Z,101395.77
2019-04-21T22:06:58.247Z,101390.61
2019-04-21T22:09:18.700Z,101400.38
2019-04-21T22:11:49.576Z,101397.85
2019-04-21T22:14:22.955Z,101397.80
2019-04-21T22:16:57.788Z,101398.39
2019-04-21T22:19:29.770Z,101400.69
2019-04-21T22:22:00.998Z,101407.31
2019-04-21T22:24:26.937Z,101399.95
2019-04-21T22:26:39.385Z,101402.22
2019-04-21T22:29:07.642Z,101398.71
2019-04-21T22:31:38.899Z,101395.22
2019-04-21T22:34:07.574Z,101405.37
2019-04-21T22:36:44.725Z,101408.95
2019-04-21T22:39:20.795Z,101408.99
2019-04-21T22:41:36.309Z,101402.47
2019-04-21T22:44:01.007Z,101406.43
2019-04-21T22:46:28.662Z,101400.80
2019-04-21T22:48:59.532Z,101403.02
2019-04-21T22:51:35.382Z,101395.12
2019-04-21T22:53:55.851Z,101395.64
2019-04-21T22:56:26.822Z,101396.16
2019-04-21T22:58:51.342Z,101400.92
2019-04-21T23:01:26.719Z,101395.29
2019-04-21T23:03:54.699Z,101398.80
2019-04-21T23:06:22.067Z,101400.62
2019-04-21T23:08:48.082Z,101405.45
2019-04-21T23:11:16.650Z,101401.44
2019-04-21T23:13:51.808Z,101400.64
2019-04-21T23:16:21.448Z,101397.20
2019-04-21T23:19:38.849Z,101402.06
2019-04-21T23:22:10.246Z,101401.62
2019-04-21T23:24:45.540Z,101403.39
2019-04-21T23:27:04.800Z,101392.02
2019-04-21T23:29:48.228Z,101392.89
2019-04-21T23:32:06.688Z,101392.08
2019-04-21T23:34:25.244Z,101392.96
2019-04-21T23:36:54.480Z,101388.64
2019-04-21T23:39:23.312Z,101390.41
2019-04-21T23:42:31.831Z,101392.64
2019-04-21T23:44:58.072Z,101396.59
2019-04-21T23:47:35.595Z,101392.27
2019-04-21T23:50:01.407Z,101395.77
2019-04-21T23:52:23.623Z,101387.52
2019-04-21T23:54:51.616Z,101394.08
2019-04-21T23:57:28.512Z,101391.50
2019-04-21T23:59:55.390Z,101388.01
